Time;durP1;ratioP1;P1;durP2;ratioP2;P2;SDS_P1;SDS_P2;PMS_P1;PMS_P2;Temp;Humidity;BMP_temperature;BMP_pressure;BME280_temperature;BME280_humidity;BME280_pressure;Samples;Min_cycle;Max_cycle;Signal;HPM_P1;HPM_P2
2022/12/14 00:01:36;;;;;;;65.47;19.08;;;-3270.50;95.20;;;;;;5027765;28;20108;-74
2022/12/14 00:04:01;;;;;;;60.28;19.83;;;-3270.50;95.20;;;;;;5024370;28;20084;-74
2022/12/14 00:06:29;;;;;;;60.47;18.60;;;-3270.50;95.30;;;;;;5032520;28;20100;-74
2022/12/14 00:08:57;;;;;;;56.33;18.55;;;-3270.40;95.20;;;;;;5025551;28;20043;-74
2022/12/14 00:11:23;;;;;;;62.35;18.30;;;-3270.40;95.20;;;;;;5019531;28;20144;-74
2022/12/14 00:13:57;;;;;;;50.53;17.90;;;-3270.40;95.20;;;;;;5023825;28;20521;-74
2022/12/14 00:16:24;;;;;;;50.78;16.33;;;-3270.40;95.10;;;;;;5025548;28;20442;-75
2022/12/14 00:18:52;;;;;;;54.85;17.75;;;-3270.30;95.10;;;;;;5023884;28;20373;-74
2022/12/14 00:21:18;;;;;;;55.08;18.02;;;-3270.40;95.20;;;;;;5030111;28;20046;-74
2022/12/14 00:23:45;;;;;;;50.35;17.08;;;-3270.30;95.10;;;;;;5029292;28;20045;-74
2022/12/14 00:26:23;;;;;;;58.20;18.02;;;-3270.30;95.00;;;;;;5028496;28;20109;-74
2022/12/14 00:28:52;;;;;;;55.90;17.20;;;-3270.30;95.00;;;;;;5015023;28;20057;-75
2022/12/14 00:31:18;;;;;;;50.05;18.70;;;-3270.30;95.10;;;;;;5014783;28;20033;-75
2022/12/14 00:33:43;;;;;;;46.47;16.98;;;-3270.30;95.10;;;;;;5025314;28;20541;-74
2022/12/14 00:36:11;;;;;;;53.35;18.15;;;-3270.30;95.10;;;;;;5023550;28;20028;-75
2022/12/14 00:38:37;;;;;;;47.78;16.63;;;-3270.20;95.00;;;;;;5026062;28;20034;-75
2022/12/14 00:41:03;;;;;;;52.35;16.05;;;-3270.30;95.00;;;;;;5022063;28;20037;-77
2022/12/14 00:43:29;;;;;;;51.15;17.48;;;-3270.30;95.00;;;;;;5024014;28;20040;-76
2022/12/14 00:45:54;;;;;;;55.95;17.65;;;-3270.30;94.90;;;;;;5014450;28;20030;-75
2022/12/14 00:48:21;;;;;;;51.78;16.38;;;-3270.20;94.70;;;;;;5024409;28;20454;-75
2022/12/14 00:50:48;;;;;;;48.85;16.83;;;-3270.10;94.70;;;;;;5028619;28;20044;-75
2022/12/14 00:53:14;;;;;;;47.55;16.48;;;-3270.10;94.90;;;;;;5028054;28;20029;-74
2022/12/14 00:55:41;;;;;;;53.80;16.42;;;-3270.10;94.90;;;;;;5027974;28;20029;-75
2022/12/14 00:58:08;;;;;;;46.25;16.95;;;-3270.00;94.90;;;;;;5024080;28;20455;-74
2022/12/14 01:00:34;;;;;;;50.45;16.52;;;-3270.10;95.00;;;;;;5024371;28;20200;-74
2022/12/14 01:02:59;;;;;;;44.95;15.82;;;-3270.10;94.80;;;;;;5026771;28;20489;-73
2022/12/14 01:05:25;;;;;;;47.80;16.83;;;-3270.10;94.80;;;;;;5025042;28;20031;-77
2022/12/14 01:07:51;;;;;;;45.45;16.88;;;-3270.10;94.80;;;;;;5018959;28;20030;-74
2022/12/14 01:10:16;;;;;;;49.00;16.52;;;-3270.00;94.90;;;;;;5018551;28;20380;-75
2022/12/14 01:12:42;;;;;;;45.67;16.17;;;-3270.00;94.90;;;;;;5022925;28;20030;-75
2022/12/14 01:15:08;;;;;;;46.13;15.65;;;-3270.10;94.80;;;;;;5024993;28;20033;-73
2022/12/14 01:17:33;;;;;;;48.15;16.25;;;-3270.00;94.70;;;;;;5025511;28;20043;-74
2022/12/14 01:19:59;;;;;;;39.65;14.20;;;-3270.00;94.80;;;;;;5026013;28;20033;-73
2022/12/14 01:22:24;;;;;;;47.03;15.95;;;-3270.00;94.90;;;;;;5020530;28;20065;-74
2022/12/14 01:24:49;;;;;;;50.22;14.43;;;-3269.90;94.70;;;;;;5022357;28;20049;-73
2022/12/14 01:27:15;;;;;;;37.35;15.85;;;-3269.80;94.60;;;;;;5026891;28;20030;-73
2022/12/14 01:29:40;;;;;;;49.22;14.82;;;-3269.80;94.70;;;;;;5020722;28;20049;-74
2022/12/14 01:32:06;;;;;;;41.97;14.70;;;-3269.80;94.70;;;;;;5013998;28;20397;-74
2022/12/14 01:34:31;;;;;;;44.53;15.13;;;-3269.90;95.00;;;;;;5016182;28;20128;-74
2022/12/14 01:36:57;;;;;;;42.58;15.68;;;-3269.80;94.80;;;;;;5028873;28;20029;-73
2022/12/14 01:39:22;;;;;;;45.78;14.88;;;-3269.80;94.90;;;;;;5012567;28;20439;-73
2022/12/14 01:41:51;;;;;;;45.28;15.82;;;-3269.70;94.80;;;;;;5028149;28;20030;-74
2022/12/14 01:44:17;;;;;;;41.58;14.90;;;-3269.60;94.70;;;;;;5021298;28;20033;-74
2022/12/14 01:46:47;;;;;;;40.17;14.73;;;-3269.50;94.50;;;;;;5017373;28;20037;-74
2022/12/14 01:49:28;;;;;;;37.83;14.23;;;-3269.40;94.30;;;;;;5024999;28;20481;-73
2022/12/14 01:51:59;;;;;;;40.22;14.32;;;-3269.30;94.50;;;;;;5020905;28;20029;-74
2022/12/14 01:54:26;;;;;;;;;;;-3269.20;94.50;;;;;;5020799;28;20106;-73
2022/12/14 01:56:53;;;;;;;33.22;12.35;;;-3269.20;94.60;;;;;;5027419;28;19920;-73
2022/12/14 01:59:25;;;;;;;33.35;12.82;;;-3269.30;95.10;;;;;;5027352;28;20393;-73
2022/12/14 02:01:51;;;;;;;33.00;13.18;;;-3269.30;95.00;;;;;;5034056;28;20456;-73
2022/12/14 02:04:19;;;;;;;37.30;13.07;;;-3269.40;95.00;;;;;;5025288;28;20124;-74
2022/12/14 02:06:47;;;;;;;36.08;13.95;;;-3269.40;95.00;;;;;;5027418;28;20103;-73
2022/12/14 02:09:18;;;;;;;40.35;15.35;;;-3269.40;95.20;;;;;;5025924;28;20049;-75
2022/12/14 02:11:48;;;;;;;37.85;13.95;;;-3269.40;95.10;;;;;;5024248;28;20034;-73
2022/12/14 02:14:13;;;;;;;28.58;11.27;;;-3269.40;95.00;;;;;;5022734;28;20065;-74
2022/12/14 02:16:40;;;;;;;42.05;13.68;;;-3269.50;95.20;;;;;;5025202;28;20072;-73
2022/12/14 02:19:05;;;;;;;33.72;14.27;;;-3269.50;95.10;;;;;;5029513;28;20060;-75
2022/12/14 02:21:52;;;;;;;43.65;14.18;;;-3269.50;95.10;;;;;;5027898;28;20105;-73
2022/12/14 02:24:41;;;;;;;33.30;13.80;;;-3269.50;95.10;;;;;;5026484;28;20271;-73
2022/12/14 02:27:21;;;;;;;36.90;14.07;;;-3269.50;95.00;;;;;;5019020;28;20049;-74
2022/12/14 02:29:58;;;;;;;32.92;14.00;;;-3269.50;95.00;;;;;;5018640;28;20030;-75
2022/12/14 02:32:41;;;;;;;43.85;14.63;;;-3269.40;95.00;;;;;;5016926;28;20178;-74
2022/12/14 02:35:34;;;;;;;39.78;13.15;;;-3269.40;95.00;;;;;;5023566;28;20029;-74
2022/12/14 02:38:37;;;;;;;36.88;13.43;;;-3269.50;95.10;;;;;;5018416;28;20034;-73
2022/12/14 02:41:21;;;;;;;36.30;13.65;;;-3269.40;95.10;;;;;;5022563;28;20091;-74
2022/12/14 02:44:05;;;;;;;41.60;14.48;;;-3269.40;94.90;;;;;;5022921;28;20651;-74
2022/12/14 02:46:45;;;;;;;37.15;14.95;;;-3269.40;95.00;;;;;;5027148;28;20346;-74
2022/12/14 02:49:30;;;;;;;;;;;-3269.40;95.20;;;;;;5024470;28;20033;-74
2022/12/14 02:52:01;;;;;;;42.03;12.98;;;-3269.50;95.10;;;;;;5024505;28;19987;-74
2022/12/14 02:54:39;;;;;;;29.88;13.27;;;-3269.50;95.10;;;;;;5032954;28;20064;-75
2022/12/14 02:57:20;;;;;;;32.83;13.52;;;-3269.40;94.80;;;;;;5025114;28;20056;-74
2022/12/14 02:59:46;;;;;;;;;;;-3269.50;95.00;;;;;;5024532;28;20047;-75
2022/12/14 03:02:13;;;;;;;33.00;12.05;;;-3269.60;95.10;;;;;;5032686;28;20342;-75
2022/12/14 03:04:44;;;;;;;36.88;14.00;;;-3269.60;94.90;;;;;;5028501;28;20068;-74
2022/12/14 03:07:39;;;;;;;33.22;13.45;;;-3269.60;94.90;;;;;;5033096;28;20033;-75
2022/12/14 03:10:29;;;;;;;27.50;11.98;;;-3269.60;94.90;;;;;;5019545;28;20042;-74
2022/12/14 03:13:21;;;;;;;34.35;13.02;;;-3269.70;94.90;;;;;;5026525;28;20106;-74
2022/12/14 03:15:52;;;;;;;34.17;13.93;;;-3269.70;94.80;;;;;;5019649;28;20124;-74
2022/12/14 03:18:20;;;;;;;39.78;13.07;;;-3269.60;94.70;;;;;;5015482;28;20030;-76
2022/12/14 03:20:50;;;;;;;40.03;13.90;;;-3269.60;94.70;;;;;;5027380;28;20490;-74
2022/12/14 03:23:21;;;;;;;31.95;12.68;;;-3269.60;94.80;;;;;;5023982;28;20049;-75
2022/12/14 03:25:54;;;;;;;45.33;13.60;;;-3269.50;94.70;;;;;;5016477;28;20696;-74
2022/12/14 03:28:28;;;;;;;35.03;13.07;;;-3269.50;94.80;;;;;;5025138;28;20037;-74
2022/12/14 03:31:05;;;;;;;33.55;12.60;;;-3269.50;94.80;;;;;;5030595;28;20105;-74
2022/12/14 03:33:34;;;;;;;34.90;12.30;;;-3269.50;94.90;;;;;;5020344;28;20025;-74
2022/12/14 03:36:24;;;;;;;33.35;13.23;;;-3269.50;94.90;;;;;;5020779;28;20038;-74
2022/12/14 03:38:53;;;;;;;34.05;12.90;;;-3269.50;94.70;;;;;;5028945;28;20442;-74
2022/12/14 03:41:30;;;;;;;30.17;12.43;;;-3269.50;94.70;;;;;;5023314;28;20049;-75
2022/12/14 03:44:31;;;;;;;34.55;12.70;;;-3269.40;94.70;;;;;;5027497;28;20376;-75
2022/12/14 03:47:05;;;;;;;31.00;11.55;;;-3269.40;94.70;;;;;;5019393;28;20116;-73
2022/12/14 03:50:03;;;;;;;39.35;11.98;;;-3269.40;94.70;;;;;;5024234;28;20025;-73
2022/12/14 03:52:41;;;;;;;30.52;11.98;;;-3269.40;94.80;;;;;;5020972;28;20103;-73
2022/12/14 03:55:36;;;;;;;32.50;12.55;;;-3269.30;94.60;;;;;;5022050;28;20092;-73
2022/12/14 03:58:40;;;;;;;28.17;13.10;;;-3269.20;94.60;;;;;;5012201;28;20446;-72
2022/12/14 04:01:15;;;;;;;30.33;12.95;;;-3269.20;94.80;;;;;;5026805;28;20447;-73
2022/12/14 04:04:02;;;;;;;34.63;12.32;;;-3269.20;94.60;;;;;;5030800;28;20607;-73
2022/12/14 04:06:56;;;;;;;30.13;11.93;;;-3269.10;94.60;;;;;;5023598;28;20026;-74
2022/12/14 04:09:26;;;;;;;26.48;12.10;;;-3269.10;94.60;;;;;;5031286;28;20029;-73
2022/12/14 04:21:35;;;;;;;27.45;10.82;;;-3269.10;94.60;;;;;;5034484;28;20307;-73
2022/12/14 04:27:19;;;;;;;30.73;12.05;;;-3269.20;94.70;;;;;;5016130;28;20124;-74
2022/12/14 04:29:57;;;;;;;30.23;11.85;;;-3269.00;94.50;;;;;;5023320;28;20484;-74
2022/12/14 04:32:34;;;;;;;32.72;11.38;;;-3269.10;94.70;;;;;;5021952;28;20124;-74
2022/12/14 04:35:09;;;;;;;23.90;11.38;;;-3269.10;94.70;;;;;;5027777;28;20079;-74
2022/12/14 04:37:38;;;;;;;26.33;11.68;;;-3269.00;94.70;;;;;;5026858;28;20385;-73
2022/12/14 04:40:09;;;;;;;33.00;12.32;;;-3269.00;94.60;;;;;;5022259;28;20325;-74
2022/12/14 04:42:42;;;;;;;31.27;11.82;;;-3269.00;94.70;;;;;;5021587;28;20374;-73
2022/12/14 04:45:31;;;;;;;26.08;10.55;;;-3269.00;94.70;;;;;;5032398;28;20423;-73
2022/12/14 04:48:06;;;;;;;26.92;11.07;;;-3269.00;94.40;;;;;;5023082;28;20247;-73
2022/12/14 04:50:42;;;;;;;27.92;11.48;;;-3268.90;94.50;;;;;;5036329;28;20040;-73
2022/12/14 04:53:20;;;;;;;28.80;11.23;;;-3268.90;94.40;;;;;;5024333;28;20033;-74
2022/12/14 04:55:56;;;;;;;29.17;11.50;;;-3268.90;94.40;;;;;;5026466;28;20029;-73
2022/12/14 04:58:24;;;;;;;30.67;12.45;;;-3268.90;94.50;;;;;;5032428;28;20017;-74
2022/12/14 05:01:21;;;;;;;28.25;11.85;;;-3269.00;94.60;;;;;;5024934;28;20028;-73
2022/12/14 05:04:07;;;;;;;25.60;10.27;;;-3268.90;94.60;;;;;;5025872;28;20074;-75
2022/12/14 05:06:45;;;;;;;23.20;11.52;;;-3268.90;94.60;;;;;;5029008;28;20025;-74
2022/12/14 05:09:25;;;;;;;28.77;10.73;;;-3268.90;94.50;;;;;;5024614;28;20090;-74
2022/12/14 05:12:32;;;;;;;26.58;9.82;;;-3268.90;94.60;;;;;;5022718;28;20045;-74
2022/12/14 05:15:12;;;;;;;31.25;11.52;;;-3268.80;94.50;;;;;;5002067;28;20416;-73
2022/12/14 05:17:40;;;;;;;27.60;12.32;;;-3268.60;94.40;;;;;;4996237;28;20193;-73
2022/12/14 05:20:14;;;;;;;29.27;11.95;;;-3268.70;94.60;;;;;;5001337;28;20060;-73
2022/12/14 05:22:40;;;;;;;28.23;12.10;;;-3268.70;94.60;;;;;;5027266;28;20497;-73
2022/12/14 05:25:06;;;;;;;31.65;12.93;;;-3268.70;94.60;;;;;;5022724;28;20041;-73
2022/12/14 05:27:31;;;;;;;29.52;13.35;;;-3268.70;94.60;;;;;;5024602;28;20025;-76
2022/12/14 05:29:57;;;;;;;28.10;11.95;;;-3268.70;94.60;;;;;;5030434;28;20034;-73
2022/12/14 05:32:22;;;;;;;30.98;13.20;;;-3268.70;94.60;;;;;;5024354;28;20067;-75
2022/12/14 05:34:48;;;;;;;27.10;12.18;;;-3268.80;94.70;;;;;;5017461;28;20022;-75
2022/12/14 05:37:13;;;;;;;27.33;12.27;;;-3268.80;94.70;;;;;;5018373;28;20060;-74
2022/12/14 05:39:39;;;;;;;29.88;11.93;;;-3268.80;94.60;;;;;;5023895;28;20112;-74
2022/12/14 05:42:04;;;;;;;31.08;13.52;;;-3268.90;94.70;;;;;;5024742;28;20109;-74
2022/12/14 05:44:30;;;;;;;27.77;12.20;;;-3268.90;94.70;;;;;;5022117;28;20076;-74
2022/12/14 05:46:55;;;;;;;30.80;12.48;;;-3268.90;94.60;;;;;;5029008;28;20028;-74
2022/12/14 05:49:21;;;;;;;28.65;11.55;;;-3268.80;94.50;;;;;;5034051;28;20116;-74
2022/12/14 05:51:47;;;;;;;30.00;13.38;;;-3268.80;94.50;;;;;;5031590;28;20037;-74
2022/12/14 05:54:13;;;;;;;26.65;13.48;;;-3268.80;94.50;;;;;;5026393;28;20057;-74
2022/12/14 05:56:38;;;;;;;27.92;12.93;;;-3268.70;94.30;;;;;;5018047;28;20036;-74
2022/12/14 05:59:04;;;;;;;33.42;13.98;;;-3268.70;94.40;;;;;;5022302;28;20052;-74
2022/12/14 06:01:29;;;;;;;33.92;15.38;;;-3268.60;94.40;;;;;;5021698;28;20143;-74
2022/12/14 06:03:55;;;;;;;36.25;15.70;;;-3268.60;94.40;;;;;;5025975;28;20109;-75
2022/12/14 06:06:20;;;;;;;30.23;14.48;;;-3268.50;94.30;;;;;;5016800;28;20155;-75
2022/12/14 06:08:47;;;;;;;32.38;13.63;;;-3268.40;94.30;;;;;;5022491;28;20993;-74
2022/12/14 06:11:23;;;;;;;29.10;13.32;;;-3268.40;94.50;;;;;;5020636;28;20034;-74
2022/12/14 06:13:48;;;;;;;28.73;13.32;;;-3268.50;94.60;;;;;;5025608;28;20033;-74
2022/12/14 06:16:20;;;;;;;31.25;13.85;;;-3268.40;94.40;;;;;;5026997;28;20327;-74
2022/12/14 06:18:47;;;;;;;27.00;13.63;;;-3268.40;94.40;;;;;;5022896;28;20606;-74
2022/12/14 06:21:14;;;;;;;30.20;12.93;;;-3268.50;94.60;;;;;;5026115;28;20111;-70
2022/12/14 06:23:40;;;;;;;30.30;13.35;;;-3268.50;94.60;;;;;;5025332;28;20460;-71
2022/12/14 06:26:06;;;;;;;31.98;14.02;;;-3268.60;94.70;;;;;;5017354;28;20081;-70
2022/12/14 06:28:32;;;;;;;34.40;13.50;;;-3268.60;94.60;;;;;;5016952;28;20092;-71
2022/12/14 06:30:58;;;;;;;29.65;13.63;;;-3268.70;94.70;;;;;;5020808;28;20056;-71
2022/12/14 06:33:23;;;;;;;25.52;12.35;;;-3268.70;94.50;;;;;;5028005;28;20098;-71
2022/12/14 06:35:49;;;;;;;28.13;12.95;;;-3268.70;94.50;;;;;;5024884;28;20075;-70
2022/12/14 06:38:15;;;;;;;32.65;13.55;;;-3268.60;94.50;;;;;;5024728;28;20089;-71
2022/12/14 06:40:40;;;;;;;37.28;14.10;;;-3268.60;94.50;;;;;;5021536;28;20446;-73
2022/12/14 06:43:06;;;;;;;28.05;14.48;;;-3268.50;94.50;;;;;;5020879;28;20056;-76
2022/12/14 06:45:31;;;;;;;32.60;15.20;;;-3268.50;94.50;;;;;;5016783;28;20036;-74
2022/12/14 06:47:57;;;;;;;25.98;13.73;;;-3268.50;94.50;;;;;;5024716;28;20338;-73
2022/12/14 06:50:23;;;;;;;37.13;14.63;;;-3268.40;94.40;;;;;;5024961;28;20603;-74
2022/12/14 06:52:50;;;;;;;35.20;14.95;;;-3268.40;94.50;;;;;;5016361;28;20030;-74
2022/12/14 06:55:15;;;;;;;26.48;13.57;;;-3268.40;94.60;;;;;;5025913;28;20025;-74
2022/12/14 06:57:41;;;;;;;33.95;14.48;;;-3268.30;94.50;;;;;;5021292;28;20026;-74
2022/12/14 07:00:11;;;;;;;33.92;15.77;;;-3268.30;94.40;;;;;;5016182;28;20087;-74
2022/12/14 07:02:36;;;;;;;32.00;12.60;;;-3268.20;94.20;;;;;;5020645;28;20116;-74
2022/12/14 07:05:02;;;;;;;36.53;16.70;;;-3268.10;94.10;;;;;;5022479;28;20214;-74
2022/12/14 07:07:28;;;;;;;37.92;17.05;;;-3268.10;94.20;;;;;;5012150;28;20044;-74
2022/12/14 07:09:53;;;;;;;36.78;15.98;;;-3268.10;94.40;;;;;;5018030;28;20033;-73
2022/12/14 07:12:19;;;;;;;37.58;16.80;;;-3268.10;94.40;;;;;;5017846;28;20029;-74
2022/12/14 07:14:44;;;;;;;31.08;16.35;;;-3268.10;94.30;;;;;;5023109;28;20021;-74
2022/12/14 07:17:09;;;;;;;32.35;15.73;;;-3268.00;94.20;;;;;;5025148;28;20137;-74
2022/12/14 07:19:35;;;;;;;41.70;17.02;;;-3268.10;94.60;;;;;;5030361;28;20128;-74
2022/12/14 07:22:03;;;;;;;34.08;14.93;;;-3268.10;94.50;;;;;;5024541;28;20440;-74
2022/12/14 07:24:29;;;;;;;34.10;14.85;;;-3268.10;94.50;;;;;;5018337;28;20037;-74
2022/12/14 07:26:55;;;;;;;34.50;16.33;;;-3268.10;94.50;;;;;;5021731;28;20032;-74
2022/12/14 07:29:21;;;;;;;32.17;15.40;;;-3268.00;94.30;;;;;;5017543;28;20101;-74
2022/12/14 07:31:47;;;;;;;32.72;13.90;;;-3267.90;94.20;;;;;;5020788;28;20118;-73
2022/12/14 07:34:12;;;;;;;33.70;14.18;;;-3268.00;94.40;;;;;;5031679;28;20038;-74
2022/12/14 07:36:38;;;;;;;33.13;14.75;;;-3268.00;94.30;;;;;;5023364;28;20639;-74
2022/12/14 07:39:03;;;;;;;33.38;15.50;;;-3267.90;94.20;;;;;;5024342;28;20205;-74
2022/12/14 07:41:30;;;;;;;33.35;15.98;;;-3267.90;94.20;;;;;;5022701;28;20113;-74
2022/12/14 07:43:57;;;;;;;31.80;14.55;;;-3267.90;94.30;;;;;;5026564;28;20071;-74
2022/12/14 07:46:25;;;;;;;29.90;14.68;;;-3267.90;94.10;;;;;;5023396;28;20038;-80
2022/12/14 07:48:54;;;;;;;33.13;14.82;;;-3268.00;94.50;;;;;;5024825;28;20026;-71
2022/12/14 07:51:25;;;;;;;30.08;14.45;;;-3268.10;94.60;;;;;;5013479;28;20030;-71
2022/12/14 07:53:51;;;;;;;33.33;15.43;;;-3268.00;94.20;;;;;;5026675;28;20038;-73
2022/12/14 07:56:21;;;;;;;49.38;19.65;;;-3268.00;94.20;;;;;;5024537;28;20064;-73
2022/12/14 07:58:46;;;;;;;45.13;21.17;;;-3268.10;94.40;;;;;;5024013;28;20493;-73
2022/12/14 08:01:13;;;;;;;45.45;20.13;;;-3268.10;94.20;;;;;;5024516;28;20120;-73
2022/12/14 08:03:41;;;;;;;44.13;19.70;;;-3268.10;94.20;;;;;;5033644;28;20088;-74
2022/12/14 08:06:08;;;;;;;44.78;18.83;;;-3268.00;94.20;;;;;;5024819;28;20140;-73
2022/12/14 08:08:33;;;;;;;42.10;17.00;;;-3268.00;94.10;;;;;;5026305;28;20316;-74
2022/12/14 08:10:59;;;;;;;33.53;16.25;;;-3268.10;94.10;;;;;;5028396;28;20049;-74
2022/12/14 08:13:25;;;;;;;34.85;14.75;;;-3268.10;94.20;;;;;;5026460;28;20041;-72
2022/12/14 08:15:50;;;;;;;36.25;15.27;;;-3268.20;94.20;;;;;;5027243;28;20051;-73
2022/12/14 08:18:16;;;;;;;35.45;16.48;;;-3268.20;94.20;;;;;;5028011;28;20381;-73
2022/12/14 08:20:41;;;;;;;34.22;15.52;;;-3268.20;94.20;;;;;;5032713;28;20100;-74
2022/12/14 08:23:07;;;;;;;32.08;16.15;;;-3268.20;94.10;;;;;;5026857;28;20057;-73
2022/12/14 08:25:32;;;;;;;37.30;16.17;;;-3268.20;94.10;;;;;;5028178;28;20073;-73
2022/12/14 08:27:58;;;;;;;28.58;13.90;;;-3268.30;94.10;;;;;;5028156;28;20032;-74
2022/12/14 08:30:23;;;;;;;32.42;14.15;;;-3268.30;94.20;;;;;;5024504;28;20391;-73
2022/12/14 08:32:49;;;;;;;30.63;13.48;;;-3268.60;94.50;;;;;;5025833;28;20133;-73
2022/12/14 08:35:14;;;;;;;28.50;13.75;;;-3268.70;94.40;;;;;;5027677;28;20120;-74
2022/12/14 08:37:40;;;;;;;32.22;13.93;;;-3268.80;94.30;;;;;;5030215;28;20124;-73
2022/12/14 08:40:06;;;;;;;27.67;13.65;;;-3268.80;94.20;;;;;;5026823;28;20096;-73
2022/12/14 08:42:32;;;;;;;28.20;13.38;;;-3268.80;94.30;;;;;;5030499;28;20356;-73
2022/12/14 08:44:57;;;;;;;30.40;13.90;;;-3269.00;94.50;;;;;;5028103;28;20036;-73
2022/12/14 08:47:23;;;;;;;29.40;14.65;;;-3269.10;94.50;;;;;;5028870;28;20033;-73
2022/12/14 08:49:48;;;;;;;33.05;14.18;;;-3269.30;94.70;;;;;;5027366;28;20049;-74
2022/12/14 08:52:15;;;;;;;30.60;15.23;;;-3269.40;94.50;;;;;;5026640;28;20100;-73
2022/12/14 08:54:40;;;;;;;31.17;14.73;;;-3269.60;94.50;;;;;;5026193;28;20033;-73
2022/12/14 08:57:06;;;;;;;31.67;15.05;;;-3269.70;94.50;;;;;;5029129;28;20507;-74
2022/12/14 08:59:31;;;;;;;27.77;15.27;;;-3269.90;94.20;;;;;;5022895;28;20017;-69
2022/12/14 09:01:57;;;;;;;35.28;15.77;;;-3269.90;93.90;;;;;;5027644;28;20087;-69
2022/12/14 09:04:22;;;;;;;34.10;15.73;;;-3270.00;94.00;;;;;;5028832;28;20029;-69
2022/12/14 09:06:48;;;;;;;35.83;14.35;;;-3270.00;93.90;;;;;;5023946;28;20029;-66
2022/12/14 09:09:13;;;;;;;26.98;13.82;;;-3270.10;93.70;;;;;;5029767;28;20031;-67
2022/12/14 09:11:39;;;;;;;29.50;13.57;;;-3270.10;93.80;;;;;;5025136;28;20041;-66
2022/12/14 09:14:04;;;;;;;30.92;13.20;;;-3270.20;93.60;;;;;;5019057;28;20022;-67
2022/12/14 09:16:30;;;;;;;27.98;11.95;;;-3270.30;93.80;;;;;;5025562;28;20105;-67
2022/12/14 09:18:55;;;;;;;25.20;11.30;;;-3270.40;93.50;;;;;;5032565;28;20021;-67
2022/12/14 09:21:21;;;;;;;23.23;11.73;;;-3270.60;93.60;;;;;;5028042;28;20051;-68
2022/12/14 09:23:47;;;;;;;19.63;11.15;;;-3270.60;93.00;;;;;;5028857;28;20057;-67
2022/12/14 09:26:21;;;;;;;22.25;10.68;;;-3270.70;92.90;;;;;;5028381;28;20044;-67
2022/12/14 09:28:52;;;;;;;27.42;10.32;;;-3270.80;92.90;;;;;;5032882;28;20049;-67
2022/12/14 09:31:21;;;;;;;21.73;10.05;;;-3271.00;92.50;;;;;;5027892;28;20500;-67
2022/12/14 09:33:47;;;;;;;22.00;9.90;;;-3271.10;91.90;;;;;;5022942;28;20124;-67
2022/12/14 09:36:18;;;;;;;22.33;9.55;;;-3271.20;91.20;;;;;;5026052;28;20206;-67
2022/12/14 09:38:44;;;;;;;20.92;8.52;;;-3271.40;90.90;;;;;;5023532;28;20032;-67
2022/12/14 09:41:31;;;;;;;15.70;8.13;;;-3271.60;90.10;;;;;;5022181;28;20508;-68
2022/12/14 09:44:05;;;;;;;17.77;8.35;;;-3271.80;89.80;;;;;;5019491;28;20048;-67
2022/12/14 09:46:49;;;;;;;18.02;8.20;;;-3271.90;89.60;;;;;;5028304;28;20033;-67
2022/12/14 09:49:26;;;;;;;15.75;8.02;;;-3272.10;88.80;;;;;;5030080;28;20132;-68
2022/12/14 09:51:54;;;;;;;15.07;7.50;;;-3272.40;88.60;;;;;;5027790;28;20056;-67
2022/12/14 09:54:25;;;;;;;16.50;7.78;;;-3272.50;88.00;;;;;;5028356;28;20105;-66
2022/12/14 09:56:53;;;;;;;16.08;7.55;;;-3272.70;87.60;;;;;;5026766;28;20498;-66
2022/12/14 09:59:19;;;;;;;13.63;6.57;;;-3272.90;87.50;;;;;;5025415;28;20156;-67
2022/12/14 10:02:25;;;;;;;14.23;6.93;;;-3273.10;88.50;;;;;;5028063;28;20041;-66
2022/12/14 10:05:14;;;;;;;14.35;6.63;;;-3273.30;88.30;;;;;;5027313;28;20330;-66
2022/12/14 10:08:10;;;;;;;13.38;6.72;;;-3273.50;88.80;;;;;;5027874;28;20037;-66
2022/12/14 10:10:57;;;;;;;13.88;6.03;;;-3273.70;88.20;;;;;;5026198;28;20064;-67
2022/12/14 10:13:25;;;;;;;13.13;6.05;;;-3273.90;87.30;;;;;;5028499;28;20025;-67
2022/12/14 10:16:07;;;;;;;18.88;6.03;;;-3274.00;85.20;;;;;;5027245;28;20108;-67
2022/12/14 10:19:09;;;;;;;11.20;5.90;;;-3274.10;85.90;;;;;;5028452;28;20480;-67
2022/12/14 10:21:49;;;;;;;12.50;6.22;;;-3274.10;85.90;;;;;;5027995;28;20539;-67
2022/12/14 10:24:24;;;;;;;11.02;5.63;;;-3274.10;85.30;;;;;;5023477;28;20060;-68
2022/12/14 10:26:52;;;;;;;10.95;5.57;;;-3274.10;84.10;;;;;;5025285;28;20041;-68
2022/12/14 10:29:42;;;;;;;15.57;5.97;;;-3274.10;83.90;;;;;;5020071;28;20048;-68
2022/12/14 10:32:30;;;;;;;11.65;5.63;;;-3274.20;83.30;;;;;;5026451;28;20037;-69
2022/12/14 10:34:57;;;;;;;10.35;5.65;;;-3274.20;83.80;;;;;;5025089;28;20063;-68
2022/12/14 10:37:34;;;;;;;13.45;6.03;;;-3274.20;83.60;;;;;;5012591;28;20108;-68
2022/12/14 10:40:08;;;;;;;12.88;5.88;;;-3274.30;83.30;;;;;;5019820;28;20099;-67
2022/12/14 10:42:57;;;;;;;12.18;5.90;;;-3274.40;82.40;;;;;;5026637;28;20084;-68
2022/12/14 10:45:47;;;;;;;12.50;5.82;;;-3274.40;81.60;;;;;;5009309;28;20389;-67
2022/12/14 10:48:29;;;;;;;11.90;5.95;;;-3274.50;81.90;;;;;;5022725;28;20171;-68
2022/12/14 10:51:06;;;;;;;12.27;5.70;;;-3274.50;82.00;;;;;;5015753;28;20025;-67
2022/12/14 10:53:50;;;;;;;11.98;5.68;;;-3274.60;81.10;;;;;;5018206;28;20043;-67
2022/12/14 10:56:27;;;;;;;12.68;5.35;;;-3274.70;80.20;;;;;;5019459;28;20068;-68
2022/12/14 10:59:14;;;;;;;12.60;5.85;;;-3274.70;79.70;;;;;;5019336;28;20118;-68
2022/12/14 11:01:40;;;;;;;12.75;6.85;;;-3274.80;80.20;;;;;;5025417;28;20065;-68
2022/12/14 11:04:30;;;;;;;12.13;6.55;;;-3274.90;80.10;;;;;;5024418;28;20057;-68
2022/12/14 11:07:01;;;;;;;13.38;5.95;;;-3275.00;79.70;;;;;;5019657;28;20021;-68
2022/12/14 11:09:28;;;;;;;11.15;5.57;;;-3275.10;78.70;;;;;;5028188;28;20144;-68
2022/12/14 11:12:06;;;;;;;10.20;5.30;;;-3275.20;79.50;;;;;;5020012;28;20104;-68
2022/12/14 11:14:34;;;;;;;11.32;5.65;;;-3275.30;79.00;;;;;;5025002;28;20017;-68
2022/12/14 11:17:00;;;;;;;10.35;5.47;;;-3275.40;78.40;;;;;;5024429;28;20055;-69
2022/12/14 11:19:26;;;;;;;11.50;5.68;;;-3275.50;78.50;;;;;;5027586;28;21398;-68
2022/12/14 11:22:13;;;;;;;8.38;4.57;;;-3275.60;78.60;;;;;;4984461;28;1000920;-68
2022/12/14 11:24:44;;;;;;;8.02;4.30;;;-3275.80;77.20;;;;;;5023653;28;20046;-68
2022/12/14 11:27:10;;;;;;;8.82;4.22;;;-3275.90;74.90;;;;;;5022792;28;20178;-68
2022/12/14 11:29:38;;;;;;;9.95;4.88;;;-3276.10;77.30;;;;;;5022052;28;20045;-68
2022/12/14 11:32:05;;;;;;;10.52;4.75;;;-3276.20;76.10;;;;;;5020937;28;20306;-69
2022/12/14 11:34:38;;;;;;;10.93;4.78;;;-3276.30;74.40;;;;;;5026509;28;20029;-69
2022/12/14 11:37:12;;;;;;;8.50;4.50;;;-3276.40;73.60;;;;;;5025063;28;20045;-69
2022/12/14 11:39:40;;;;;;;8.35;4.63;;;-3276.60;72.40;;;;;;5025744;28;20018;-69
2022/12/14 11:42:15;;;;;;;9.23;4.43;;;-3276.70;72.60;;;;;;5021066;28;20052;-69
2022/12/14 11:44:41;;;;;;;9.60;5.03;;;0.00;74.70;;;;;;5025575;28;20033;-70
2022/12/14 11:47:15;;;;;;;9.68;4.95;;;0.10;72.90;;;;;;5026383;28;20029;-69
2022/12/14 11:49:40;;;;;;;12.43;5.38;;;0.30;72.40;;;;;;5025856;28;20348;-69
2022/12/14 11:52:18;;;;;;;9.95;5.18;;;0.20;71.80;;;;;;5025089;28;20041;-70
2022/12/14 11:55:05;;;;;;;9.80;5.40;;;0.10;71.10;;;;;;5017694;28;20018;-69
2022/12/14 11:57:44;;;;;;;12.77;5.28;;;0.10;72.60;;;;;;5022604;28;20133;-69
2022/12/14 12:00:29;;;;;;;11.25;5.60;;;0.10;73.00;;;;;;5018245;28;20052;-69
2022/12/14 12:03:01;;;;;;;11.90;5.45;;;0.00;70.80;;;;;;5033724;28;20343;-69
2022/12/14 12:05:28;;;;;;;8.85;4.57;;;-3276.70;70.90;;;;;;5021345;28;20028;-69
2022/12/14 12:07:55;;;;;;;10.38;5.03;;;-3276.70;70.70;;;;;;5027766;28;20437;-69
2022/12/14 12:10:32;;;;;;;9.32;5.05;;;0.10;72.30;;;;;;5024079;28;20022;-69
2022/12/14 12:13:04;;;;;;;12.38;5.20;;;0.10;71.60;;;;;;5023866;28;20073;-69
2022/12/14 12:15:33;;;;;;;9.15;4.70;;;0.50;73.60;;;;;;5022072;28;20470;-70
2022/12/14 12:18:04;;;;;;;10.90;5.00;;;0.60;71.40;;;;;;5022498;28;20025;-69
2022/12/14 12:20:51;;;;;;;10.02;4.82;;;0.80;72.30;;;;;;5018603;28;20053;-70
2022/12/14 12:23:22;;;;;;;8.40;5.10;;;1.00;70.00;;;;;;5026526;28;20469;-69
2022/12/14 12:25:51;;;;;;;7.82;4.38;;;1.00;71.20;;;;;;5025658;28;20028;-69
2022/12/14 12:28:28;;;;;;;9.27;5.32;;;1.10;70.70;;;;;;5027542;28;20026;-69
2022/12/14 12:31:02;;;;;;;10.05;5.30;;;1.20;70.40;;;;;;5037637;28;20078;-68
2022/12/14 12:33:40;;;;;;;11.68;5.53;;;0.90;69.50;;;;;;5027594;28;20022;-69
2022/12/14 12:36:07;;;;;;;11.63;5.50;;;0.80;71.30;;;;;;5020718;28;20096;-68
2022/12/14 12:38:50;;;;;;;9.43;4.90;;;0.50;70.10;;;;;;5028993;28;20536;-68
2022/12/14 12:41:29;;;;;;;9.65;4.93;;;0.30;71.40;;;;;;5032670;28;20037;-69